Portada
Imágenes satélite Pronóstico 15 díasClimaPredicción Marítima Ciclones Rayo AeropuertosFAQ Noticias Acerca
El tiempo : Europa África América del Norte América del Sur Asia Australia-Oceanía Otros
Idiomas Contacto

Vitória, Espírito Santo, Brasil

latitud: 20-16S, longitud: 040-17W, altitud: 4 m


METAR: SBVT 270400Z 35007KT 9999 SCT025 SCT080 24/19 Q1012
TAF: SBVT 262100Z 2700/2724 01010KT 9999 FEW030 TN24/2703Z TX30/2715Z BECMG 2710/2712 05018KT RMK PDU

Hora: 02:05 (04:05 UTC)

Observación

El informe se hizo hace 5 minutos, a las 04:00 UTC
Viento 7 kt del norte
Temperatura 24°C
Humedad 74%
Presión 1012 hPa
Visibilidad 10 km o más
Nubes dispersas a una altura de 2500 ft
Nubes dispersas a una altura de 8000 ft

Cambiar las unidades

Pronóstico

El informe se hizo hace 7 horas y 5 minutos, a las 21:00 UTC
Pronóstico válido del 27 a las 00 UTC al 27 a las 24 UTC
Viento 10 kt del norte
Visibilidad 10 km o más
Escasas nubes a una altura de 3000 ft
Evolucionando progresivamente
del 27 a las 10 UTC al 27 a las 12 UTC
Viento 18 kt del noreste
La información que se ofrece en estas páginas está sujeta a una cláusula de exención de responsabilidad
El tiempo : Europa África América del Norte América del Sur Asia Australia-Oceanía Otros
Imágenes satélite Pronóstico 15 díasClimaPredicción Marítima Ciclones Rayo AeropuertosFAQ Idiomas Contacto Noticias Acerca